Time;durP1;ratioP1;P1;durP2;ratioP2;P2;SDS_P1;SDS_P2;PMS_P1;PMS_P2;Temp;Humidity;BMP_temperature;BMP_pressure;BME280_temperature;BME280_humidity;BME280_pressure;Samples;Min_cycle;Max_cycle;Signal;HPM_P1;HPM_P2
2022/09/09 00:00:17;;;;;;;4.82;2.25;;;14.90;97.50;;;;;;4966926;28;20053;-71
2022/09/09 00:03:03;;;;;;;3.55;2.00;;;14.90;97.40;;;;;;4947757;28;20047;-71
2022/09/09 00:05:31;;;;;;;2.05;1.55;;;14.90;97.40;;;;;;4976726;28;20753;-71
2022/09/09 00:08:00;;;;;;;3.80;1.83;;;14.90;97.50;;;;;;4959026;28;20046;-71
2022/09/09 00:10:28;;;;;;;3.30;1.58;;;15.00;97.50;;;;;;4943520;28;20109;-71
2022/09/09 00:13:25;;;;;;;3.33;1.60;;;14.90;97.40;;;;;;4962290;28;20066;-71
2022/09/09 00:16:12;;;;;;;5.40;1.77;;;14.90;97.50;;;;;;4947666;28;20363;-71
2022/09/09 00:18:56;;;;;;;3.45;1.55;;;15.00;97.40;;;;;;4977883;28;20051;-71
2022/09/09 00:21:32;;;;;;;3.88;1.30;;;15.00;97.30;;;;;;4972825;28;20042;-71
2022/09/09 00:23:58;;;;;;;3.15;1.50;;;15.00;97.20;;;;;;4955517;28;20574;-71
2022/09/09 00:26:24;;;;;;;4.43;2.05;;;15.00;97.20;;;;;;4970936;28;20054;-71
2022/09/09 00:29:08;;;;;;;4.07;1.50;;;15.10;97.20;;;;;;4975979;28;20369;-71
2022/09/09 00:31:34;;;;;;;5.22;1.55;;;15.00;97.10;;;;;;4960049;28;20142;-71
2022/09/09 00:34:15;;;;;;;5.15;1.67;;;15.10;97.20;;;;;;4957931;28;20149;-71
2022/09/09 00:36:41;;;;;;;3.00;1.50;;;15.00;97.20;;;;;;4909610;28;20062;-71
2022/09/09 00:39:23;;;;;;;3.97;1.52;;;15.10;97.20;;;;;;4965074;28;20048;-71
2022/09/09 00:41:58;;;;;;;2.97;1.23;;;15.00;97.10;;;;;;4955127;28;20043;-71
2022/09/09 00:44:39;;;;;;;3.42;1.23;;;15.00;97.20;;;;;;4977994;28;20353;-71
2022/09/09 00:47:37;;;;;;;3.10;1.30;;;15.00;97.10;;;;;;4979887;28;20050;-71
2022/09/09 00:50:35;;;;;;;2.15;1.05;;;15.00;97.10;;;;;;4971641;28;20737;-71
2022/09/09 00:53:29;;;;;;;4.88;1.15;;;15.00;97.00;;;;;;4978258;28;20101;-71
2022/09/09 00:56:21;;;;;;;2.17;0.93;;;15.00;97.10;;;;;;4955003;28;20050;-71
2022/09/09 00:59:19;;;;;;;5.65;1.27;;;14.90;97.20;;;;;;4949955;28;20125;-71
2022/09/09 01:01:44;;;;;;;4.38;1.23;;;14.90;97.30;;;;;;4969516;28;20042;-71
2022/09/09 01:04:15;;;;;;;1.83;1.05;;;14.90;97.30;;;;;;4924967;28;20043;-72
2022/09/09 01:06:42;;;;;;;2.13;1.10;;;14.90;97.30;;;;;;4944773;28;20137;-71
2022/09/09 01:09:22;;;;;;;3.55;1.20;;;15.00;97.40;;;;;;4949409;28;20105;-71
2022/09/09 01:12:10;;;;;;;1.45;0.90;;;15.00;97.40;;;;;;4944308;28;20043;-71
2022/09/09 01:14:36;;;;;;;2.85;1.17;;;14.90;97.40;;;;;;4968130;28;20237;-71
2022/09/09 01:17:14;;;;;;;1.83;0.90;;;14.90;97.70;;;;;;4978049;28;20057;-71
2022/09/09 01:19:43;;;;;;;2.42;1.35;;;14.90;97.60;;;;;;4974826;28;20043;-71
2022/09/09 01:22:15;;;;;;;3.10;1.10;;;14.90;97.70;;;;;;4971186;28;20047;-71
2022/09/09 01:25:16;;;;;;;3.85;1.50;;;14.80;97.70;;;;;;4967907;28;20494;-71
2022/09/09 01:27:42;;;;;;;3.70;1.00;;;14.80;97.80;;;;;;4936731;28;20105;-71
2022/09/09 01:30:11;;;;;;;3.33;0.93;;;14.80;97.90;;;;;;4928944;28;20054;-71
2022/09/09 01:32:41;;;;;;;5.53;1.42;;;14.80;97.80;;;;;;4958674;28;20129;-71
2022/09/09 01:35:14;;;;;;;3.00;0.82;;;14.80;97.90;;;;;;4959100;28;20149;-71
2022/09/09 01:37:40;;;;;;;3.75;1.10;;;14.80;97.80;;;;;;4963234;28;20050;-71
2022/09/09 01:40:06;;;;;;;3.22;1.00;;;14.80;97.70;;;;;;4927901;28;20046;-72
2022/09/09 01:42:32;;;;;;;4.22;0.95;;;14.80;97.60;;;;;;4957468;28;20089;-71
2022/09/09 01:44:58;;;;;;;5.95;1.48;;;14.80;97.60;;;;;;4969899;28;20468;-71
2022/09/09 01:47:25;;;;;;;6.60;1.55;;;14.80;97.50;;;;;;4930520;28;20483;-71
2022/09/09 01:49:51;;;;;;;5.75;1.20;;;14.80;97.50;;;;;;4969597;28;20054;-71
2022/09/09 01:52:17;;;;;;;3.35;1.38;;;14.80;97.40;;;;;;4977402;28;20050;-72
2022/09/09 01:54:43;;;;;;;2.05;0.98;;;14.80;97.40;;;;;;4936420;28;20046;-72
2022/09/09 01:57:23;;;;;;;3.45;1.10;;;14.90;97.40;;;;;;4950840;28;20511;-72
2022/09/09 01:59:56;;;;;;;2.95;1.00;;;14.80;97.30;;;;;;4962913;28;20058;-71
2022/09/09 02:03:03;;;;;;;5.75;1.20;;;14.80;97.30;;;;;;4973220;28;20372;-72
2022/09/09 02:06:00;;;;;;;3.35;1.05;;;14.90;97.20;;;;;;4957093;28;20178;-72
2022/09/09 02:08:45;;;;;;;4.93;1.20;;;14.80;97.10;;;;;;4925335;28;20051;-71
2022/09/09 02:11:17;;;;;;;2.75;1.00;;;14.80;97.00;;;;;;4974041;28;20078;-72
2022/09/09 02:13:45;;;;;;;4.78;1.20;;;14.80;97.10;;;;;;4948887;28;20039;-72
2022/09/09 02:16:15;;;;;;;3.80;1.00;;;14.80;97.00;;;;;;4959008;28;20108;-73
2022/09/09 02:18:56;;;;;;;3.72;1.13;;;14.80;97.10;;;;;;4956210;28;20043;-72
2022/09/09 02:21:21;;;;;;;6.20;1.33;;;14.70;97.00;;;;;;4966833;28;20070;-72
2022/09/09 02:23:48;;;;;;;9.35;1.00;;;14.70;96.90;;;;;;4968431;28;20144;-71
2022/09/09 02:26:19;;;;;;;3.05;0.90;;;14.70;96.80;;;;;;4951472;28;20047;-72
2022/09/09 02:28:45;;;;;;;3.20;1.05;;;14.80;96.80;;;;;;4943297;28;20047;-72
2022/09/09 02:31:13;;;;;;;3.60;1.20;;;14.70;96.70;;;;;;4959602;28;20050;-72
2022/09/09 02:33:42;;;;;;;4.68;1.23;;;14.80;96.80;;;;;;4980537;28;20054;-71
2022/09/09 02:36:08;;;;;;;6.07;1.20;;;14.70;96.70;;;;;;4956739;28;20110;-71
2022/09/09 02:38:37;;;;;;;3.63;0.90;;;14.80;96.60;;;;;;4963418;28;20205;-71
2022/09/09 02:41:03;;;;;;;3.97;1.25;;;14.80;96.60;;;;;;4964577;28;20376;-72
2022/09/09 02:43:33;;;;;;;2.17;1.17;;;14.80;96.60;;;;;;4946641;28;20539;-72
2022/09/09 02:46:08;;;;;;;2.95;1.17;;;14.80;96.50;;;;;;4984586;28;20435;-72
2022/09/09 02:48:59;;;;;;;2.72;0.93;;;14.80;96.50;;;;;;4952093;28;20174;-72
2022/09/09 02:52:00;;;;;;;2.97;1.17;;;14.80;96.40;;;;;;4965613;28;20046;-72
2022/09/09 02:54:33;;;;;;;3.92;1.10;;;14.80;96.50;;;;;;4957556;28;20042;-72
2022/09/09 02:57:21;;;;;;;4.97;1.15;;;14.80;96.60;;;;;;4976588;28;20050;-71
2022/09/09 02:59:47;;;;;;;7.65;1.40;;;14.80;96.50;;;;;;4976536;28;20058;-72
2022/09/09 03:02:12;;;;;;;4.35;1.25;;;14.80;96.50;;;;;;4947949;28;20043;-72
2022/09/09 03:04:39;;;;;;;4.38;1.30;;;14.80;96.50;;;;;;4972058;28;20043;-72
2022/09/09 03:07:06;;;;;;;5.15;1.10;;;14.80;96.40;;;;;;4936961;29;20051;-72
2022/09/09 03:09:34;;;;;;;4.53;1.05;;;14.80;96.30;;;;;;4949130;28;20050;-72
2022/09/09 03:12:00;;;;;;;4.07;1.48;;;14.80;96.30;;;;;;4970859;28;20506;-72
2022/09/09 03:14:26;;;;;;;6.10;1.55;;;14.90;96.30;;;;;;4939944;29;20059;-72
2022/09/09 03:16:52;;;;;;;4.28;1.95;;;14.90;96.20;;;;;;4951548;28;20059;-72
2022/09/09 03:19:18;;;;;;;3.90;1.25;;;14.80;96.20;;;;;;4958951;28;20047;-72
2022/09/09 03:21:45;;;;;;;3.72;1.17;;;14.90;96.20;;;;;;4950993;28;20049;-71
2022/09/09 03:24:12;;;;;;;4.15;1.83;;;14.90;96.20;;;;;;4951449;28;20186;-71
2022/09/09 03:26:38;;;;;;;3.80;1.10;;;14.80;96.20;;;;;;4937526;28;20055;-72
2022/09/09 03:29:07;;;;;;;4.32;1.33;;;14.90;96.20;;;;;;4983012;28;20150;-71
2022/09/09 03:31:33;;;;;;;5.43;1.20;;;14.90;96.10;;;;;;4967051;28;20046;-72
2022/09/09 03:33:59;;;;;;;3.75;1.15;;;14.90;96.10;;;;;;4937928;28;20065;-72
2022/09/09 03:36:26;;;;;;;9.18;1.92;;;14.80;96.10;;;;;;4945256;28;20051;-72
2022/09/09 03:38:53;;;;;;;4.70;1.23;;;14.80;96.10;;;;;;4967665;28;20138;-72
2022/09/09 03:41:23;;;;;;;7.03;1.35;;;14.80;96.20;;;;;;4934990;29;20059;-72
2022/09/09 03:43:52;;;;;;;3.92;1.40;;;14.70;96.20;;;;;;4961187;28;20058;-71
2022/09/09 03:46:19;;;;;;;3.33;1.23;;;14.80;96.30;;;;;;4917943;28;20047;-72
2022/09/09 03:48:45;;;;;;;6.70;1.40;;;14.70;96.40;;;;;;4939352;28;20042;-72
2022/09/09 03:51:10;;;;;;;2.95;1.40;;;14.70;96.40;;;;;;4947687;28;20043;-72
2022/09/09 03:53:37;;;;;;;5.32;1.55;;;14.70;96.30;;;;;;4936460;28;20054;-72
2022/09/09 03:56:04;;;;;;;4.15;1.20;;;14.70;96.30;;;;;;4972042;28;20043;-71
2022/09/09 03:58:29;;;;;;;4.47;1.42;;;14.70;96.30;;;;;;4946075;28;20038;-72
2022/09/09 04:00:56;;;;;;;5.38;1.40;;;14.80;96.40;;;;;;4972754;28;20057;-72
2022/09/09 04:03:24;;;;;;;6.10;1.65;;;14.80;96.50;;;;;;4932893;28;20039;-72
2022/09/09 04:05:51;;;;;;;5.38;1.70;;;14.70;96.40;;;;;;4986168;28;20143;-73
2022/09/09 04:08:18;;;;;;;8.43;1.33;;;14.80;96.30;;;;;;4962726;28;20379;-72
2022/09/09 04:10:48;;;;;;;4.72;1.40;;;14.80;96.40;;;;;;4953195;28;20070;-72
2022/09/09 04:13:17;;;;;;;6.03;1.63;;;14.80;96.30;;;;;;4949897;28;20043;-72
2022/09/09 04:15:44;;;;;;;6.30;1.73;;;14.90;96.40;;;;;;4973569;28;20349;-72
2022/09/09 04:18:11;;;;;;;3.47;1.27;;;14.90;96.20;;;;;;4969210;28;20480;-72
2022/09/09 04:20:38;;;;;;;5.80;1.70;;;14.90;96.20;;;;;;4968323;28;20053;-72
2022/09/09 04:23:04;;;;;;;5.80;1.42;;;15.00;96.20;;;;;;4948826;28;20053;-72
2022/09/09 04:25:30;;;;;;;4.15;1.30;;;15.00;96.40;;;;;;4968419;28;20047;-72
2022/09/09 04:27:56;;;;;;;5.50;1.30;;;15.00;96.40;;;;;;4927529;28;20046;-72
2022/09/09 04:30:22;;;;;;;5.15;1.60;;;15.00;96.40;;;;;;4951823;28;20412;-72
2022/09/09 04:32:48;;;;;;;4.70;1.30;;;15.00;96.50;;;;;;4943327;28;20055;-72
2022/09/09 04:35:14;;;;;;;6.50;1.38;;;15.00;96.50;;;;;;4977124;28;20117;-72
2022/09/09 04:37:39;;;;;;;6.28;1.50;;;15.00;96.40;;;;;;4957235;28;20051;-72
2022/09/09 04:40:08;;;;;;;7.43;2.22;;;15.00;96.30;;;;;;4979066;28;20443;-72
2022/09/09 04:42:36;;;;;;;6.75;1.63;;;15.00;96.30;;;;;;4937666;28;20392;-72
2022/09/09 04:45:02;;;;;;;4.60;1.48;;;15.00;96.30;;;;;;4952178;28;20038;-72
2022/09/09 04:47:28;;;;;;;5.43;1.25;;;15.00;96.30;;;;;;4965350;28;20077;-72
2022/09/09 04:49:54;;;;;;;7.00;1.83;;;15.00;96.30;;;;;;4956126;28;20506;-72
2022/09/09 04:52:20;;;;;;;4.28;1.17;;;15.00;96.30;;;;;;4971194;28;20054;-72
2022/09/09 04:54:46;;;;;;;4.65;1.50;;;15.10;96.30;;;;;;4964774;28;20174;-72
2022/09/09 04:57:12;;;;;;;7.10;1.85;;;15.00;96.20;;;;;;4964699;28;20765;-72
2022/09/09 04:59:39;;;;;;;5.28;1.52;;;15.10;96.10;;;;;;4959645;28;20408;-72
2022/09/09 05:02:05;;;;;;;4.03;1.45;;;15.10;96.10;;;;;;4976504;28;20050;-72
2022/09/09 05:04:31;;;;;;;5.25;1.58;;;15.10;96.10;;;;;;4957989;28;20056;-72
2022/09/09 05:06:57;;;;;;;9.45;2.45;;;15.20;96.10;;;;;;4962849;28;20130;-72
2022/09/09 05:09:22;;;;;;;7.18;1.90;;;15.20;96.20;;;;;;4960804;28;20125;-72
2022/09/09 05:11:48;;;;;;;6.35;1.35;;;15.10;96.10;;;;;;4984257;28;20051;-72
2022/09/09 05:14:14;;;;;;;5.22;1.75;;;15.10;96.30;;;;;;4957387;28;20050;-72
2022/09/09 05:16:40;;;;;;;6.65;1.42;;;15.10;96.40;;;;;;4974132;28;20050;-72
2022/09/09 05:19:07;;;;;;;4.43;1.90;;;15.00;96.50;;;;;;4962511;28;20046;-72
2022/09/09 05:21:33;;;;;;;7.57;1.92;;;15.00;96.50;;;;;;4984579;28;20059;-72
2022/09/09 05:24:00;;;;;;;6.40;1.90;;;15.10;96.50;;;;;;4952975;28;20179;-72
2022/09/09 05:26:26;;;;;;;5.13;1.90;;;15.10;96.50;;;;;;4939035;28;20542;-73
2022/09/09 05:28:51;;;;;;;7.05;2.20;;;15.10;96.50;;;;;;4960678;28;20050;-72
2022/09/09 05:31:18;;;;;;;7.30;1.88;;;15.10;96.50;;;;;;4952581;28;20057;-72
2022/09/09 05:33:45;;;;;;;4.93;1.85;;;15.20;96.50;;;;;;4956221;28;20050;-70
2022/09/09 05:36:15;;;;;;;8.10;1.88;;;15.20;96.40;;;;;;4967585;28;20046;-70
2022/09/09 05:38:42;;;;;;;4.70;1.35;;;15.20;96.40;;;;;;4954195;28;20043;-70
2022/09/09 05:41:08;;;;;;;3.30;1.45;;;15.20;96.40;;;;;;4954953;28;20050;-71
2022/09/09 05:43:35;;;;;;;6.68;1.77;;;15.20;96.30;;;;;;4967273;28;20052;-70
2022/09/09 05:46:08;;;;;;;5.40;1.43;;;15.30;96.30;;;;;;4947940;28;20051;-70
2022/09/09 05:48:38;;;;;;;4.75;1.40;;;15.30;96.20;;;;;;4962768;28;20274;-70
2022/09/09 05:51:08;;;;;;;6.32;1.70;;;15.30;96.20;;;;;;4955017;28;20113;-71
2022/09/09 05:53:34;;;;;;;3.40;1.40;;;15.30;96.10;;;;;;4963929;28;20034;-70
2022/09/09 05:56:03;;;;;;;9.30;2.33;;;15.40;96.20;;;;;;4953871;28;20053;-71
2022/09/09 05:58:32;;;;;;;6.20;2.28;;;15.40;96.10;;;;;;4941244;28;20806;-71
2022/09/09 06:01:15;;;;;;;4.85;1.27;;;15.40;96.20;;;;;;4941304;28;20050;-71
2022/09/09 06:03:41;;;;;;;5.38;1.50;;;15.50;96.20;;;;;;4975018;28;20042;-71
2022/09/09 06:06:09;;;;;;;7.68;1.60;;;15.50;96.20;;;;;;4976442;28;20046;-70
2022/09/09 06:08:39;;;;;;;7.37;1.60;;;15.50;96.30;;;;;;4956137;28;20046;-70
2022/09/09 06:11:06;;;;;;;5.20;2.00;;;15.50;96.40;;;;;;4970028;28;20051;-70
2022/09/09 06:13:32;;;;;;;5.28;1.30;;;15.60;96.30;;;;;;4962676;28;20484;-70
2022/09/09 06:15:58;;;;;;;5.32;1.80;;;15.60;96.30;;;;;;4976994;28;20066;-70
2022/09/09 06:18:25;;;;;;;4.97;1.55;;;15.60;96.10;;;;;;4930916;28;20057;-70
2022/09/09 06:21:00;;;;;;;6.15;1.73;;;15.60;96.10;;;;;;4958534;28;20108;-70
2022/09/09 06:23:26;;;;;;;7.78;2.00;;;15.70;96.00;;;;;;4963850;28;20113;-70
2022/09/09 06:26:01;;;;;;;5.15;1.52;;;15.70;96.10;;;;;;4964734;28;20674;-70
2022/09/09 06:28:27;;;;;;;5.35;1.48;;;15.70;95.90;;;;;;4975204;28;20054;-70
2022/09/09 06:31:04;;;;;;;5.57;1.45;;;15.80;96.00;;;;;;4952021;28;20058;-70
2022/09/09 06:33:41;;;;;;;4.72;1.42;;;15.80;95.90;;;;;;4932907;28;20057;-69
2022/09/09 06:36:10;;;;;;;5.57;1.40;;;15.80;95.80;;;;;;4971529;28;20068;-69
2022/09/09 06:38:36;;;;;;;7.13;1.33;;;15.80;95.90;;;;;;4976366;28;20074;-69
2022/09/09 06:41:05;;;;;;;8.60;2.03;;;15.90;96.00;;;;;;4962324;28;20038;-70
2022/09/09 06:43:31;;;;;;;8.55;1.60;;;15.90;96.00;;;;;;4975929;28;20047;-69
2022/09/09 06:45:59;;;;;;;4.32;1.52;;;15.90;96.10;;;;;;4975887;28;20042;-69
2022/09/09 06:48:28;;;;;;;5.47;1.67;;;16.00;96.10;;;;;;4975144;28;20050;-69
2022/09/09 06:51:13;;;;;;;5.82;1.40;;;16.10;96.30;;;;;;4974433;28;20699;-69
2022/09/09 06:53:39;;;;;;;4.95;1.45;;;16.20;95.90;;;;;;4968022;28;20133;-69
2022/09/09 06:56:21;;;;;;;4.60;1.30;;;16.20;95.80;;;;;;4945499;28;20050;-69
2022/09/09 06:58:48;;;;;;;8.25;3.10;;;16.30;95.90;;;;;;4977137;28;20860;-69
2022/09/09 07:01:33;;;;;;;8.20;2.63;;;16.30;95.80;;;;;;4962094;28;20082;-69
2022/09/09 07:03:59;;;;;;;4.88;1.73;;;16.40;95.70;;;;;;4961349;28;20042;-69
2022/09/09 07:06:27;;;;;;;7.50;1.85;;;16.40;95.80;;;;;;4935566;28;20515;-70
2022/09/09 07:08:54;;;;;;;6.33;1.73;;;16.50;95.90;;;;;;4946409;28;20369;-69
2022/09/09 07:11:21;;;;;;;10.23;1.90;;;16.50;95.80;;;;;;4972614;28;20332;-69
2022/09/09 07:13:47;;;;;;;5.95;1.70;;;16.60;95.60;;;;;;4959835;28;20050;-69
2022/09/09 07:16:17;;;;;;;8.50;1.80;;;16.70;95.40;;;;;;4954853;28;20560;-69
2022/09/09 07:18:43;;;;;;;6.30;1.92;;;16.70;95.40;;;;;;4953839;28;20165;-69
2022/09/09 07:21:14;;;;;;;4.57;1.40;;;16.70;95.30;;;;;;4968646;28;20745;-69
2022/09/09 07:23:40;;;;;;;5.30;1.50;;;16.80;95.20;;;;;;4931900;28;20515;-69
2022/09/09 07:26:15;;;;;;;6.15;1.30;;;16.80;95.50;;;;;;4964169;28;20883;-69
2022/09/09 07:28:41;;;;;;;5.22;1.70;;;16.90;95.50;;;;;;4969874;28;20490;-69
2022/09/09 07:31:07;;;;;;;8.73;1.65;;;16.90;95.50;;;;;;4971061;28;20050;-69
2022/09/09 07:33:34;;;;;;;6.78;1.63;;;17.00;95.20;;;;;;4966580;28;20045;-70
2022/09/09 07:36:08;;;;;;;6.20;1.73;;;17.00;95.30;;;;;;4953230;28;20050;-69
2022/09/09 07:38:38;;;;;;;8.98;1.67;;;17.10;95.60;;;;;;4955866;28;20056;-69
2022/09/09 07:41:06;;;;;;;4.38;1.45;;;17.20;95.20;;;;;;4983167;28;20081;-69
2022/09/09 07:43:35;;;;;;;4.82;1.23;;;17.20;95.00;;;;;;4974627;28;20053;-69
2022/09/09 07:46:01;;;;;;;8.30;1.70;;;17.30;94.10;;;;;;4975468;28;20061;-69
2022/09/09 07:48:28;;;;;;;6.97;1.20;;;17.30;93.60;;;;;;4964596;28;20046;-69
2022/09/09 07:51:10;;;;;;;7.15;1.50;;;17.30;93.80;;;;;;4968147;28;20046;-69
2022/09/09 07:53:36;;;;;;;7.32;1.70;;;17.30;94.00;;;;;;4966498;28;20054;-69
2022/09/09 07:56:12;;;;;;;5.22;1.08;;;17.30;93.70;;;;;;4970758;28;20264;-69
2022/09/09 07:58:40;;;;;;;5.13;1.60;;;17.40;93.70;;;;;;4971692;28;20042;-69
2022/09/09 08:01:08;;;;;;;6.85;2.40;;;17.40;93.70;;;;;;4957494;28;20074;-69
2022/09/09 08:03:33;;;;;;;6.40;2.42;;;17.40;93.80;;;;;;4966474;28;20051;-69
2022/09/09 08:06:10;;;;;;;9.98;3.35;;;17.50;93.00;;;;;;4978118;28;20386;-69
2022/09/09 08:08:35;;;;;;;6.32;1.35;;;17.50;92.90;;;;;;4975927;28;20074;-69
2022/09/09 08:11:19;;;;;;;6.53;1.50;;;17.70;92.80;;;;;;4956858;28;20085;-69
2022/09/09 08:13:48;;;;;;;8.13;1.70;;;17.70;92.70;;;;;;4971946;28;20113;-69
2022/09/09 08:16:16;;;;;;;3.72;1.40;;;17.80;92.60;;;;;;4970334;28;20046;-69
2022/09/09 08:18:43;;;;;;;4.82;1.88;;;18.00;92.20;;;;;;4970379;28;20042;-69
2022/09/09 08:21:14;;;;;;;4.93;1.42;;;18.00;91.60;;;;;;4967190;28;20428;-69
2022/09/09 08:23:41;;;;;;;4.75;1.60;;;18.10;91.50;;;;;;4958204;28;20130;-69
2022/09/09 08:26:38;;;;;;;5.95;1.48;;;18.20;91.70;;;;;;4959491;28;20042;-68
2022/09/09 08:29:06;;;;;;;7.05;1.48;;;18.30;91.40;;;;;;4948008;28;20062;-69
2022/09/09 08:31:39;;;;;;;9.53;1.77;;;18.40;91.30;;;;;;4960199;28;20043;-69
2022/09/09 08:34:06;;;;;;;5.43;1.50;;;18.50;91.60;;;;;;4951817;28;20380;-68
2022/09/09 08:36:36;;;;;;;12.25;1.90;;;18.50;90.70;;;;;;4959941;28;20050;-68
2022/09/09 08:39:02;;;;;;;4.65;1.45;;;18.50;90.80;;;;;;4966582;28;20084;-69
2022/09/09 08:41:29;;;;;;;5.45;1.60;;;18.40;90.00;;;;;;4972747;28;20070;-69
2022/09/09 08:44:33;;;;;;;5.47;1.38;;;18.30;90.20;;;;;;4977144;28;20065;-69
2022/09/09 08:47:18;;;;;;;5.43;1.40;;;18.20;89.70;;;;;;4980044;28;20049;-69
2022/09/09 08:50:12;;;;;;;11.23;2.20;;;18.20;90.20;;;;;;4974831;28;20141;-69
2022/09/09 08:53:05;;;;;;;10.05;1.90;;;18.20;90.50;;;;;;4967602;28;20075;-69
2022/09/09 08:56:03;;;;;;;5.13;1.60;;;18.20;90.20;;;;;;4972371;28;20061;-69
2022/09/09 08:58:33;;;;;;;7.70;1.80;;;18.30;90.40;;;;;;4956417;28;20062;-69
2022/09/09 09:01:32;;;;;;;6.68;1.42;;;18.40;90.20;;;;;;4936343;28;20042;-70
2022/09/09 09:04:27;;;;;;;4.13;1.20;;;18.40;88.90;;;;;;4960156;28;20100;-70
2022/09/09 09:07:33;;;;;;;5.60;1.73;;;18.40;90.00;;;;;;4975710;28;20077;-71
2022/09/09 09:10:05;;;;;;;5.20;1.40;;;18.30;89.30;;;;;;4965869;28;20726;-70
2022/09/09 09:12:38;;;;;;;6.57;1.65;;;18.40;89.90;;;;;;4953350;28;20050;-70
2022/09/09 09:15:22;;;;;;;4.43;1.20;;;18.40;89.50;;;;;;4982459;28;20180;-70
2022/09/09 09:17:48;;;;;;;7.20;1.60;;;18.40;88.80;;;;;;4968155;28;20046;-71
2022/09/09 09:20:15;;;;;;;8.40;1.20;;;18.40;89.80;;;;;;4953447;28;20046;-70
2022/09/09 09:22:48;;;;;;;4.65;1.13;;;18.50;88.80;;;;;;4966762;28;20047;-70
2022/09/09 09:25:44;;;;;;;5.38;1.38;;;18.60;89.20;;;;;;4954733;28;20046;-70
2022/09/09 09:28:17;;;;;;;7.07;1.65;;;18.80;88.70;;;;;;4962716;28;20116;-70
2022/09/09 09:31:07;;;;;;;9.05;2.15;;;18.80;88.20;;;;;;4962961;28;20354;-70
2022/09/09 09:33:53;;;;;;;5.88;1.90;;;18.90;87.40;;;;;;4959146;28;20046;-70
2022/09/09 09:36:19;;;;;;;7.78;1.65;;;19.10;89.50;;;;;;4971400;28;20054;-70
2022/09/09 09:38:57;;;;;;;7.43;1.60;;;19.30;88.60;;;;;;4966389;28;20053;-70
2022/09/09 09:41:43;;;;;;;7.97;1.90;;;19.50;86.40;;;;;;4961351;28;20071;-70
2022/09/09 09:44:29;;;;;;;6.25;1.73;;;19.60;86.70;;;;;;4949610;28;20578;-69
2022/09/09 09:47:15;;;;;;;9.00;1.95;;;19.70;85.10;;;;;;4947067;28;20049;-70
2022/09/09 09:50:02;;;;;;;7.70;1.75;;;19.90;85.40;;;;;;4952962;28;20053;-70
2022/09/09 09:52:31;;;;;;;4.27;1.50;;;20.10;83.30;;;;;;4950332;28;20547;-70
2022/09/09 09:54:59;;;;;;;6.35;1.40;;;20.20;83.70;;;;;;4956649;28;20344;-70
2022/09/09 09:57:34;;;;;;;5.68;2.00;;;20.20;82.70;;;;;;4956439;28;20058;-70
2022/09/09 10:00:23;;;;;;;5.95;1.45;;;20.30;80.70;;;;;;4972338;28;20070;-70
2022/09/09 10:02:52;;;;;;;6.05;1.52;;;20.10;80.90;;;;;;4963343;28;20476;-70
2022/09/09 10:05:29;;;;;;;5.13;1.60;;;20.00;81.90;;;;;;4967180;28;20046;-70
2022/09/09 10:08:05;;;;;;;6.05;1.60;;;19.80;81.80;;;;;;4963107;28;20375;-70
2022/09/09 10:10:44;;;;;;;6.60;1.40;;;19.90;82.70;;;;;;4969476;28;20047;-69
2022/09/09 10:13:49;;;;;;;5.03;1.38;;;20.00;82.20;;;;;;4968806;28;20051;-70
2022/09/09 10:16:35;;;;;;;6.55;1.38;;;20.10;81.30;;;;;;4969644;28;20137;-70
2022/09/09 10:19:20;;;;;;;5.18;1.65;;;20.10;82.00;;;;;;4972966;28;20049;-70
2022/09/09 10:21:57;;;;;;;7.03;1.98;;;20.10;80.50;;;;;;4963037;28;20054;-70
2022/09/09 10:24:32;;;;;;;10.48;2.10;;;20.10;80.90;;;;;;4959468;28;20053;-70
2022/09/09 10:27:32;;;;;;;6.85;1.83;;;20.00;81.40;;;;;;4969483;28;20050;-70
2022/09/09 10:30:18;;;;;;;6.35;1.90;;;20.00;82.00;;;;;;4960581;28;20053;-70
2022/09/09 10:32:48;;;;;;;5.60;1.80;;;20.00;81.50;;;;;;4972508;28;20109;-70
2022/09/09 10:35:33;;;;;;;6.25;1.60;;;20.00;81.40;;;;;;4971911;28;20133;-70
2022/09/09 10:38:24;;;;;;;6.50;1.65;;;20.00;81.50;;;;;;4935583;28;20554;-70
2022/09/09 10:40:59;;;;;;;6.32;1.45;;;20.30;82.00;;;;;;4973206;28;20058;-71
2022/09/09 10:43:50;;;;;;;11.85;2.17;;;20.60;80.50;;;;;;4979977;28;20668;-71
2022/09/09 10:46:38;;;;;;;6.18;1.80;;;20.70;79.60;;;;;;4953482;28;20047;-71
2022/09/09 10:49:52;;;;;;;3.42;1.20;;;20.80;78.00;;;;;;4956399;28;20038;-71
2022/09/09 10:52:27;;;;;;;6.63;1.33;;;20.70;78.40;;;;;;4927816;29;20126;-71
2022/09/09 10:55:02;;;;;;;6.50;1.50;;;21.00;78.40;;;;;;4939712;28;20130;-70
2022/09/09 10:57:36;;;;;;;6.28;1.55;;;21.20;78.10;;;;;;4978666;28;20057;-71
2022/09/09 11:00:06;;;;;;;5.10;1.35;;;21.40;77.20;;;;;;4978861;28;20076;-70
2022/09/09 11:02:33;;;;;;;6.13;1.20;;;21.60;74.90;;;;;;4969100;28;20046;-70
2022/09/09 11:05:25;;;;;;;5.18;0.98;;;21.50;73.00;;;;;;4976643;28;20431;-70
2022/09/09 11:08:04;;;;;;;7.60;2.00;;;21.30;71.70;;;;;;4939751;28;20377;-70
2022/09/09 11:10:43;;;;;;;5.07;1.35;;;21.10;72.20;;;;;;4970025;28;20057;-70
2022/09/09 11:13:44;;;;;;;4.82;1.20;;;20.90;70.60;;;;;;4964156;28;20054;-70
2022/09/09 11:16:23;;;;;;;4.93;1.40;;;20.80;72.40;;;;;;4939373;28;20050;-70
2022/09/09 11:18:49;;;;;;;5.03;1.40;;;20.70;73.00;;;;;;4962153;28;20133;-70
2022/09/09 11:21:22;;;;;;;6.85;1.80;;;20.70;73.60;;;;;;4934607;28;20133;-70
2022/09/09 11:23:57;;;;;;;4.82;1.40;;;20.70;73.80;;;;;;4976947;28;20047;-70
2022/09/09 11:26:31;;;;;;;4.55;1.33;;;20.80;75.50;;;;;;4962975;28;20042;-70
2022/09/09 11:29:34;;;;;;;3.45;0.98;;;21.00;75.40;;;;;;4973029;28;20262;-70
2022/09/09 11:32:08;;;;;;;6.90;1.25;;;21.10;75.10;;;;;;4967307;28;20475;-71
2022/09/09 11:34:56;;;;;;;5.68;1.23;;;21.20;75.20;;;;;;4969784;28;20069;-71
2022/09/09 11:37:40;;;;;;;5.15;1.30;;;21.30;75.30;;;;;;4953800;28;20046;-71
2022/09/09 11:40:28;;;;;;;5.00;1.30;;;21.20;74.40;;;;;;4972960;28;20097;-70
2022/09/09 11:43:23;;;;;;;4.78;1.60;;;21.00;75.00;;;;;;4951827;28;20054;-70
2022/09/09 11:45:58;;;;;;;8.63;1.70;;;20.80;73.70;;;;;;4960347;28;20106;-71
2022/09/09 11:48:38;;;;;;;4.25;1.48;;;20.60;75.70;;;;;;4978828;28;20047;-70
2022/09/09 11:51:09;;;;;;;5.93;1.77;;;20.50;77.30;;;;;;4965796;28;20092;-70
2022/09/09 11:53:58;;;;;;;3.80;1.40;;;20.40;77.80;;;;;;4962243;28;20133;-70
2022/09/09 11:56:31;;;;;;;5.05;0.90;;;20.50;77.50;;;;;;4975388;28;20062;-71
2022/09/09 11:59:05;;;;;;;4.03;1.05;;;20.40;75.70;;;;;;4973179;28;20054;-70
2022/09/09 12:01:42;;;;;;;4.60;1.25;;;20.30;76.20;;;;;;4952532;28;20046;-70
2022/09/09 12:04:27;;;;;;;5.23;1.40;;;20.10;74.90;;;;;;4955436;28;20042;-70
2022/09/09 12:07:25;;;;;;;4.90;1.30;;;20.00;75.30;;;;;;4947627;28;20150;-70
2022/09/09 12:10:05;;;;;;;;;;;20.10;73.60;;;;;;4953983;28;20050;-70
2022/09/09 12:12:35;;;;;;;4.25;1.10;;;20.20;74.10;;;;;;4977630;28;19913;-70
2022/09/09 12:15:10;;;;;;;3.75;1.10;;;20.60;72.50;;;;;;4944879;28;20060;-70
2022/09/09 12:17:58;;;;;;;4.28;0.98;;;21.00;72.20;;;;;;4951688;28;20105;-71
2022/09/09 12:20:52;;;;;;;4.00;1.10;;;21.40;71.30;;;;;;4971683;28;20483;-70
2022/09/09 12:23:42;;;;;;;4.53;1.40;;;21.70;71.70;;;;;;4964017;28;20042;-70
2022/09/09 12:26:30;;;;;;;3.55;1.10;;;22.00;70.00;;;;;;4963632;28;20134;-70
2022/09/09 12:29:46;;;;;;;4.88;1.25;;;22.40;70.20;;;;;;4974277;28;20053;-70
2022/09/09 12:32:23;;;;;;;7.05;1.40;;;22.60;68.60;;;;;;4964212;28;20050;-70
2022/09/09 12:35:13;;;;;;;7.68;1.42;;;22.80;67.70;;;;;;4952450;28;20431;-71
2022/09/09 12:37:50;;;;;;;5.55;1.40;;;22.80;67.20;;;;;;4967777;28;20093;-70
2022/09/09 12:40:41;;;;;;;3.50;1.00;;;22.70;68.10;;;;;;4966866;28;20392;-70
2022/09/09 12:43:21;;;;;;;5.60;1.67;;;23.10;68.50;;;;;;4952499;28;20133;-70
2022/09/09 12:45:48;;;;;;;4.25;1.50;;;23.40;67.40;;;;;;4932722;28;20182;-70
2022/09/09 12:48:17;;;;;;;2.88;0.98;;;23.30;63.90;;;;;;4970346;28;20054;-70
2022/09/09 12:50:51;;;;;;;5.63;1.63;;;22.90;65.50;;;;;;4970374;28;20057;-71
2022/09/09 12:53:23;;;;;;;6.32;1.85;;;22.80;63.70;;;;;;4958576;28;20046;-70
2022/09/09 12:56:09;;;;;;;5.03;1.40;;;22.60;64.40;;;;;;4975535;28;20780;-70
2022/09/09 12:58:40;;;;;;;6.13;1.30;;;22.60;63.10;;;;;;4953302;28;20531;-70
2022/09/09 13:01:22;;;;;;;4.90;1.30;;;22.70;64.90;;;;;;4958983;28;20125;-71
2022/09/09 13:03:48;;;;;;;5.78;1.27;;;22.80;65.70;;;;;;4921382;28;20586;-71
2022/09/09 13:06:35;;;;;;;9.63;1.73;;;22.70;66.80;;;;;;4955084;28;20050;-71
2022/09/09 13:09:03;;;;;;;4.47;1.40;;;22.50;67.30;;;;;;4967936;28;20089;-70
2022/09/09 13:11:38;;;;;;;5.30;1.30;;;22.60;67.10;;;;;;4958693;28;20096;-70
2022/09/09 13:14:03;;;;;;;4.00;1.30;;;23.80;64.20;;;;;;4958602;28;20058;-70
2022/09/09 13:16:33;;;;;;;5.40;1.20;;;23.80;62.80;;;;;;4953382;28;20058;-70
2022/09/09 13:19:16;;;;;;;2.70;1.00;;;22.90;63.00;;;;;;4967319;28;20054;-70
2022/09/09 13:21:44;;;;;;;5.47;1.35;;;22.40;64.30;;;;;;4969857;28;20047;-71
2022/09/09 13:24:31;;;;;;;3.67;1.13;;;22.10;66.50;;;;;;4973528;28;20048;-70